createdAt,value
2023-05-10T00:00:45.772Z,10.52
2023-05-10T00:03:48.585Z,10.49
2023-05-10T00:06:51.359Z,10.46
2023-05-10T00:09:53.952Z,10.42
2023-05-10T00:12:56.729Z,10.39
2023-05-10T00:15:59.280Z,10.36
2023-05-10T00:19:01.930Z,10.33
2023-05-10T00:22:04.466Z,10.26
2023-05-10T00:25:08.111Z,10.26
2023-05-10T00:28:10.731Z,10.24
2023-05-10T00:31:13.405Z,10.20
2023-05-10T00:34:16.463Z,10.16
2023-05-10T00:37:19.140Z,10.13
2023-05-10T00:40:22.094Z,10.11
2023-05-10T00:43:24.664Z,10.08
2023-05-10T00:46:28.197Z,10.07
2023-05-10T00:49:31.148Z,10.04
2023-05-10T00:52:34.001Z,10.00
2023-05-10T00:55:37.145Z,9.96
2023-05-10T00:58:41.020Z,9.93
2023-05-10T01:01:47.219Z,9.89
2023-05-10T01:04:50.573Z,9.87
2023-05-10T01:07:53.776Z,9.82
2023-05-10T01:10:56.624Z,9.77
2023-05-10T01:13:59.927Z,9.74
2023-05-10T01:17:03.900Z,9.68
2023-05-10T01:20:09.354Z,9.65
2023-05-10T01:23:19.186Z,9.59
2023-05-10T01:26:35.430Z,9.57
2023-05-10T01:30:13.656Z,9.55
2023-05-10T01:34:08.879Z,9.51
2023-05-10T01:37:52.183Z,9.44
2023-05-10T01:41:20.226Z,9.40
2023-05-10T01:44:32.343Z,9.36
2023-05-10T01:47:44.627Z,9.33
2023-05-10T01:50:48.682Z,9.32
2023-05-10T01:58:10.959Z,9.22
2023-05-10T02:01:14.722Z,9.19
2023-05-10T02:04:20.326Z,9.16
2023-05-10T02:07:25.166Z,9.12
2023-05-10T02:10:29.654Z,9.08
2023-05-10T02:13:35.488Z,9.03
2023-05-10T02:16:40.037Z,8.98
2023-05-10T02:19:44.349Z,8.95
2023-05-10T02:22:50.391Z,8.92
2023-05-10T02:26:06.914Z,8.90
2023-05-10T02:29:10.922Z,8.85
2023-05-10T02:32:15.494Z,8.83
2023-05-10T02:35:18.562Z,8.81
2023-05-10T02:38:25.075Z,8.78
2023-05-10T02:41:29.229Z,8.76
2023-05-10T02:44:33.520Z,8.73
2023-05-10T02:47:36.592Z,8.70
2023-05-10T02:50:44.960Z,8.68
2023-05-10T02:53:50.622Z,8.67
2023-05-10T02:56:59.626Z,8.64
2023-05-10T03:00:03.922Z,8.60
2023-05-10T03:03:06.705Z,8.56
2023-05-10T03:06:09.331Z,8.54
2023-05-10T03:09:16.217Z,8.52
2023-05-10T03:12:26.858Z,8.45
2023-05-10T03:15:39.105Z,8.39
2023-05-10T03:19:08.636Z,8.34
2023-05-10T03:22:14.212Z,8.32
2023-05-10T03:25:18.082Z,8.31
2023-05-10T03:28:22.265Z,8.31
2023-05-10T03:31:25.246Z,8.31
2023-05-10T03:34:27.928Z,8.31
2023-05-10T03:37:30.492Z,8.28
2023-05-10T03:40:33.321Z,8.28
2023-05-10T03:43:46.029Z,8.26
2023-05-10T03:46:49.031Z,8.24
2023-05-10T03:49:52.071Z,8.25
2023-05-10T03:52:55.022Z,8.27
2023-05-10T03:55:57.717Z,8.27
2023-05-10T03:59:00.482Z,8.27
2023-05-10T04:02:03.890Z,8.30
2023-05-10T04:05:07.359Z,8.31
2023-05-10T04:08:10.398Z,8.31
2023-05-10T04:11:13.823Z,8.32
2023-05-10T04:14:16.571Z,8.34
2023-05-10T04:17:19.116Z,8.35
2023-05-10T04:20:21.711Z,8.36
2023-05-10T04:23:24.369Z,8.38
2023-05-10T04:26:26.939Z,8.41
2023-05-10T04:29:29.592Z,8.43
2023-05-10T04:32:32.621Z,8.44
2023-05-10T04:35:36.353Z,8.47
2023-05-10T04:38:39.160Z,8.50
2023-05-10T04:41:41.777Z,8.53
2023-05-10T04:44:44.706Z,8.57
2023-05-10T04:47:57.606Z,8.60
2023-05-10T04:51:00.773Z,8.65
2023-05-10T04:54:06.392Z,8.69
2023-05-10T04:57:09.434Z,8.74
2023-05-10T05:00:12.594Z,8.81
2023-05-10T05:03:15.327Z,8.88
2023-05-10T05:06:21.083Z,8.95
2023-05-10T05:09:23.678Z,9.02
2023-05-10T05:12:26.335Z,9.07
2023-05-10T05:15:28.987Z,9.14
2023-05-10T05:18:31.576Z,9.21
2023-05-10T05:21:34.172Z,9.27
2023-05-10T05:24:39.170Z,9.34
2023-05-10T05:27:42.326Z,9.40
2023-05-10T05:30:44.962Z,9.47
2023-05-10T05:33:47.762Z,9.56
2023-05-10T05:36:50.335Z,9.63
2023-05-10T05:39:52.996Z,9.69
2023-05-10T05:42:55.849Z,9.77
2023-05-10T05:45:59.169Z,9.86
2023-05-10T05:49:02.521Z,9.95
2023-05-10T05:52:05.800Z,10.03
2023-05-10T05:55:08.668Z,10.12
2023-05-10T05:58:11.182Z,10.20
2023-05-10T06:01:13.795Z,10.28
2023-05-10T06:04:17.281Z,10.37
2023-05-10T06:07:19.977Z,10.45
2023-05-10T06:10:23.840Z,10.54
2023-05-10T06:13:30.125Z,10.63
2023-05-10T06:16:32.828Z,10.72
2023-05-10T06:19:35.507Z,10.81
2023-05-10T06:22:38.148Z,10.89
2023-05-10T06:25:41.338Z,11.00
2023-05-10T06:28:44.031Z,11.09
2023-05-10T06:31:46.742Z,11.19
2023-05-10T06:34:49.457Z,11.28
2023-05-10T06:37:52.571Z,11.37
2023-05-10T06:40:55.198Z,11.44
2023-05-10T06:43:57.723Z,11.53
2023-05-10T06:47:00.529Z,11.61
2023-05-10T06:50:07.135Z,11.69
2023-05-10T06:53:09.745Z,11.76
2023-05-10T06:56:12.414Z,11.84
2023-05-10T06:59:16.609Z,11.91
2023-05-10T07:02:19.747Z,12.01
2023-05-10T07:05:23.019Z,12.11
2023-05-10T07:08:25.633Z,12.19
2023-05-10T07:11:28.294Z,12.25
2023-05-10T07:14:31.026Z,12.31
2023-05-10T07:17:34.518Z,12.36
2023-05-10T07:20:37.119Z,12.47
2023-05-10T07:23:39.757Z,12.57
2023-05-10T07:26:42.283Z,12.65
2023-05-10T07:29:44.901Z,12.72
2023-05-10T07:32:47.614Z,12.80
2023-05-10T07:35:51.048Z,12.88
2023-05-10T07:38:53.815Z,12.95
2023-05-10T07:41:56.853Z,13.08
2023-05-10T07:44:59.596Z,13.16
2023-05-10T07:48:02.677Z,13.25
2023-05-10T07:51:05.701Z,13.32
2023-05-10T07:54:26.384Z,13.38
2023-05-10T07:57:28.941Z,13.44
2023-05-10T08:00:31.624Z,13.51
2023-05-10T08:03:34.338Z,13.59
2023-05-10T08:06:41.699Z,13.65
2023-05-10T08:09:44.618Z,13.74
2023-05-10T08:12:47.193Z,13.82
2023-05-10T08:15:50.030Z,13.87
2023-05-10T08:18:52.855Z,13.94
2023-05-10T08:21:56.717Z,14.03
2023-05-10T08:24:59.334Z,14.13
2023-05-10T08:28:02.150Z,14.21
2023-05-10T08:31:05.896Z,14.30
2023-05-10T08:34:08.908Z,14.37
2023-05-10T08:37:14.488Z,14.45
2023-05-10T08:40:20.578Z,14.55
2023-05-10T08:43:27.257Z,14.64
2023-05-10T08:46:32.082Z,14.72
2023-05-10T08:49:35.960Z,14.77
2023-05-10T08:52:41.427Z,14.85
2023-05-10T08:55:44.370Z,14.90
2023-05-10T08:58:47.015Z,15.01
2023-05-10T09:01:51.551Z,15.23
2023-05-10T09:04:54.291Z,15.32
2023-05-10T09:07:56.913Z,15.37
2023-05-10T09:11:02.197Z,15.36
2023-05-10T09:14:05.358Z,15.38
2023-05-10T09:17:08.291Z,15.42
2023-05-10T09:20:11.497Z,15.45
2023-05-10T09:23:14.170Z,15.52
2023-05-10T09:26:17.309Z,15.56
2023-05-10T09:29:20.115Z,15.64
2023-05-10T09:32:22.926Z,15.76
2023-05-10T09:35:29.627Z,15.81
2023-05-10T09:38:49.190Z,15.78
2023-05-10T09:41:51.791Z,15.86
2023-05-10T09:44:54.625Z,15.87
2023-05-10T09:47:58.902Z,15.92
2023-05-10T09:51:01.786Z,15.99
2023-05-10T09:54:14.620Z,16.06
2023-05-10T09:57:25.170Z,16.13
2023-05-10T10:00:28.498Z,16.17
2023-05-10T10:03:31.321Z,16.24
2023-05-10T10:06:41.246Z,16.32
2023-05-10T10:09:43.892Z,16.42
2023-05-10T10:12:46.532Z,16.50
2023-05-10T10:15:52.288Z,16.58
2023-05-10T10:18:55.498Z,16.72
2023-05-10T10:21:58.751Z,16.80
2023-05-10T10:25:01.913Z,16.86
2023-05-10T10:28:26.135Z,16.91
2023-05-10T10:31:40.436Z,17.05
2023-05-10T10:34:43.083Z,17.23
2023-05-10T10:37:47.267Z,17.34
2023-05-10T10:41:03.493Z,17.46
2023-05-10T10:44:27.478Z,17.54
2023-05-10T10:47:34.183Z,17.49
2023-05-10T10:50:46.051Z,17.50
2023-05-10T10:53:49.253Z,17.72
2023-05-10T10:57:14.807Z,17.80
2023-05-10T11:00:22.184Z,17.71
2023-05-10T11:03:25.850Z,17.79
2023-05-10T11:06:36.663Z,17.94
2023-05-10T11:09:42.716Z,18.08
2023-05-10T11:13:05.453Z,18.26
2023-05-10T11:16:12.374Z,18.31
2023-05-10T11:19:17.550Z,18.36
2023-05-10T11:22:20.112Z,18.55
2023-05-10T11:25:28.098Z,18.69
2023-05-10T11:28:30.846Z,18.81
2023-05-10T11:31:33.952Z,19.07
2023-05-10T11:34:36.552Z,19.26
2023-05-10T11:37:42.442Z,19.29
2023-05-10T11:40:45.047Z,19.35
2023-05-10T11:43:50.126Z,19.27
2023-05-10T11:46:53.152Z,19.12
2023-05-10T11:49:56.103Z,19.14
2023-05-10T11:52:59.880Z,19.30
2023-05-10T11:56:09.976Z,19.49
2023-05-10T11:59:16.237Z,19.51
2023-05-10T12:02:19.067Z,19.61
2023-05-10T12:05:21.908Z,19.75
2023-05-10T12:08:29.035Z,19.73
2023-05-10T12:11:31.537Z,19.59
2023-05-10T12:14:40.158Z,19.62
2023-05-10T12:17:45.525Z,19.91
2023-05-10T12:20:48.437Z,20.23
2023-05-10T12:23:56.604Z,20.40
2023-05-10T12:30:23.841Z,20.49
2023-05-10T12:33:26.814Z,20.60
2023-05-10T12:36:29.477Z,20.61
2023-05-10T12:39:41.181Z,20.70
2023-05-10T12:42:45.994Z,20.70
2023-05-10T12:45:49.208Z,20.52
2023-05-10T12:49:07.928Z,20.50
2023-05-10T12:52:14.126Z,20.61
2023-05-10T12:55:16.810Z,20.71
2023-05-10T12:58:34.470Z,20.85
2023-05-10T13:01:38.786Z,21.09
2023-05-10T13:04:43.075Z,21.17
2023-05-10T13:07:46.384Z,21.24
2023-05-10T13:10:49.760Z,21.35
2023-05-10T13:13:52.842Z,21.23
2023-05-10T13:16:55.636Z,21.03
2023-05-10T13:19:58.269Z,21.02
2023-05-10T13:23:01.029Z,21.13
2023-05-10T13:26:03.695Z,21.23
2023-05-10T13:29:06.384Z,21.22
2023-05-10T13:32:09.654Z,21.23
2023-05-10T13:35:12.514Z,21.47
2023-05-10T13:38:15.202Z,21.62
2023-05-10T13:41:17.952Z,21.71
2023-05-10T13:44:21.744Z,21.79
2023-05-10T13:47:24.433Z,21.93
2023-05-10T13:50:27.167Z,22.12
2023-05-10T13:53:29.940Z,22.31
2023-05-10T13:57:29.094Z,22.56
2023-05-10T14:00:41.474Z,22.81
2023-05-10T14:03:44.483Z,23.03
2023-05-10T14:06:47.629Z,23.25
2023-05-10T14:09:50.499Z,23.17
2023-05-10T14:12:53.268Z,23.25
2023-05-10T14:15:56.675Z,23.14
2023-05-10T14:18:59.376Z,22.85
2023-05-10T14:22:02.186Z,22.50
2023-05-10T14:25:05.360Z,22.20
2023-05-10T14:28:08.256Z,21.93
2023-05-10T14:31:11.103Z,21.82
2023-05-10T14:34:14.071Z,22.17
2023-05-10T14:37:17.572Z,22.15
2023-05-10T14:40:20.326Z,22.01
2023-05-10T14:43:23.092Z,22.10
2023-05-10T14:46:25.846Z,22.19
2023-05-10T14:49:28.828Z,22.01
2023-05-10T14:53:28.081Z,21.88
2023-05-10T14:56:44.882Z,22.28
2023-05-10T14:59:47.740Z,22.73
2023-05-10T15:02:51.287Z,22.93
2023-05-10T15:05:54.786Z,22.79
2023-05-10T15:08:57.474Z,22.45
2023-05-10T15:12:00.159Z,22.63
2023-05-10T15:15:03.328Z,23.11
2023-05-10T15:18:06.867Z,23.51
2023-05-10T15:21:10.094Z,23.58
2023-05-10T15:24:12.746Z,23.69
2023-05-10T15:27:15.524Z,23.88
2023-05-10T15:30:18.198Z,24.10
2023-05-10T15:33:20.843Z,24.19
2023-05-10T15:36:23.633Z,24.39
2023-05-10T15:39:26.377Z,24.82
2023-05-10T15:42:29.044Z,25.18
2023-05-10T15:45:32.214Z,25.57
2023-05-10T15:48:35.005Z,26.21
2023-05-10T15:51:58.481Z,26.81
2023-05-10T15:55:01.092Z,27.29
2023-05-10T15:58:03.699Z,27.75
2023-05-10T16:01:06.880Z,27.95
2023-05-10T16:04:33.543Z,27.93
2023-05-10T16:07:36.224Z,27.84
2023-05-10T16:10:38.904Z,27.64
2023-05-10T16:13:41.536Z,27.14
2023-05-10T16:16:44.432Z,26.37
2023-05-10T16:20:05.590Z,25.92
2023-05-10T16:23:08.468Z,25.61
2023-05-10T16:26:11.125Z,25.41
2023-05-10T16:29:13.792Z,25.00
2023-05-10T16:36:07.018Z,24.52
2023-05-10T16:39:24.730Z,24.43
2023-05-10T16:42:28.214Z,24.34
2023-05-10T16:45:32.715Z,24.33
2023-05-10T16:48:35.724Z,24.46
2023-05-10T16:51:38.351Z,24.47
2023-05-10T16:54:47.065Z,24.49
2023-05-10T16:57:50.445Z,24.27
2023-05-10T17:00:53.210Z,24.11
2023-05-10T17:03:56.082Z,23.98
2023-05-10T17:06:58.950Z,23.79
2023-05-10T17:10:01.544Z,23.66
2023-05-10T17:13:04.172Z,23.59
2023-05-10T17:16:08.220Z,23.43
2023-05-10T17:19:11.392Z,23.27
2023-05-10T17:22:14.420Z,23.22
2023-05-10T17:25:35.600Z,23.09
2023-05-10T17:28:38.182Z,23.05
2023-05-10T17:32:02.484Z,22.99
2023-05-10T17:35:06.487Z,22.73
2023-05-10T17:38:09.097Z,22.46
2023-05-10T17:41:11.653Z,22.33
2023-05-10T17:44:14.397Z,22.17
2023-05-10T17:47:36.177Z,21.99
2023-05-10T17:50:43.430Z,21.87
2023-05-10T17:53:46.275Z,21.76
2023-05-10T17:56:49.138Z,21.62
2023-05-10T17:59:51.753Z,21.47
2023-05-10T18:03:01.468Z,21.30
2023-05-10T18:06:04.593Z,21.10
2023-05-10T18:09:07.701Z,20.92
2023-05-10T18:15:52.464Z,20.37
2023-05-10T18:18:55.090Z,20.13
2023-05-10T18:21:57.767Z,19.89
2023-05-10T18:25:00.502Z,19.78
2023-05-10T18:28:03.266Z,19.65
2023-05-10T18:31:05.855Z,19.50
2023-05-10T18:34:44.923Z,19.39
2023-05-10T18:37:48.715Z,19.23
2023-05-10T18:40:51.588Z,19.12
2023-05-10T18:44:09.494Z,18.99
2023-05-10T18:47:12.061Z,18.86
2023-05-10T18:50:14.810Z,18.76
2023-05-10T18:53:17.724Z,18.64
2023-05-10T18:56:20.403Z,18.55
2023-05-10T18:59:23.232Z,18.47
2023-05-10T19:02:26.832Z,18.40
2023-05-10T19:05:31.728Z,18.36
2023-05-10T19:08:34.321Z,18.30
2023-05-10T19:11:36.971Z,18.25
2023-05-10T19:14:39.637Z,18.20
2023-05-10T19:17:44.525Z,18.16
2023-05-10T19:20:47.824Z,18.12
2023-05-10T19:23:50.488Z,18.09
2023-05-10T19:26:53.462Z,18.06
2023-05-10T19:29:57.153Z,18.03
2023-05-10T19:32:59.772Z,17.98
2023-05-10T19:36:02.919Z,17.94
2023-05-10T19:39:05.555Z,17.89
2023-05-10T19:42:08.283Z,17.83
2023-05-10T19:45:12.113Z,17.74
2023-05-10T19:48:14.745Z,17.67
2023-05-10T19:51:17.481Z,17.62
2023-05-10T19:54:27.173Z,17.56
2023-05-10T19:57:29.844Z,17.49
2023-05-10T20:00:32.428Z,17.41
2023-05-10T20:03:35.969Z,17.35
2023-05-10T20:06:39.055Z,17.27
2023-05-10T20:09:44.412Z,17.18
2023-05-10T20:12:51.311Z,17.10
2023-05-10T20:15:58.433Z,17.02
2023-05-10T20:19:01.310Z,16.97
2023-05-10T20:22:05.531Z,16.91
2023-05-10T20:25:09.080Z,16.86
2023-05-10T20:28:13.173Z,16.79
2023-05-10T20:31:15.756Z,16.71
2023-05-10T20:34:24.539Z,16.65
2023-05-10T20:37:28.241Z,16.59
2023-05-10T20:40:31.879Z,16.52
2023-05-10T20:43:34.787Z,16.44
2023-05-10T20:46:37.878Z,16.36
2023-05-10T20:49:46.665Z,16.28
2023-05-10T20:52:52.281Z,16.22
2023-05-10T20:55:54.825Z,16.15
2023-05-10T20:58:57.397Z,16.10
2023-05-10T21:02:01.369Z,16.04
2023-05-10T21:05:04.513Z,15.99
2023-05-10T21:08:29.864Z,15.94
2023-05-10T21:11:35.843Z,15.91
2023-05-10T21:14:38.669Z,15.87
2023-05-10T21:17:41.256Z,15.82
2023-05-10T21:20:44.325Z,15.78
2023-05-10T21:23:47.252Z,15.72
2023-05-10T21:26:49.854Z,15.66
2023-05-10T21:29:53.228Z,15.62
2023-05-10T21:32:59.728Z,15.56
2023-05-10T21:36:02.556Z,15.52
2023-05-10T21:39:07.568Z,15.47
2023-05-10T21:42:10.157Z,15.43
2023-05-10T21:45:13.124Z,15.39
2023-05-10T21:48:15.800Z,15.36
2023-05-10T21:51:18.567Z,15.32
2023-05-10T21:54:27.383Z,15.27
2023-05-10T21:57:30.229Z,15.23
2023-05-10T22:00:34.195Z,15.20
2023-05-10T22:03:37.107Z,15.16
2023-05-10T22:06:39.709Z,15.13
2023-05-10T22:09:43.024Z,15.10
2023-05-10T22:12:45.590Z,15.07
2023-05-10T22:15:48.270Z,15.04
2023-05-10T22:18:51.027Z,14.99
2023-05-10T22:21:54.124Z,14.96
2023-05-10T22:24:56.680Z,14.92
2023-05-10T22:27:59.238Z,14.88
2023-05-10T22:31:01.853Z,14.84
2023-05-10T22:34:04.564Z,14.80
2023-05-10T22:37:07.182Z,14.74
2023-05-10T22:40:10.621Z,14.70
2023-05-10T22:43:13.285Z,14.66
2023-05-10T22:46:15.918Z,14.61
2023-05-10T22:49:18.619Z,14.57
2023-05-10T22:52:21.157Z,14.52
2023-05-10T22:55:23.753Z,14.47
2023-05-10T22:58:26.911Z,14.41
2023-05-10T23:01:29.942Z,14.35
2023-05-10T23:04:32.575Z,14.30
2023-05-10T23:07:35.422Z,14.26
2023-05-10T23:10:38.578Z,14.22
2023-05-10T23:13:41.179Z,14.17
2023-05-10T23:16:43.852Z,14.11
2023-05-10T23:19:46.691Z,14.08
2023-05-10T23:22:49.766Z,14.03
2023-05-10T23:25:52.429Z,13.99
2023-05-10T23:28:54.992Z,13.93
2023-05-10T23:31:57.592Z,13.90
2023-05-10T23:35:00.218Z,13.85
2023-05-10T23:38:03.271Z,13.81
2023-05-10T23:41:06.289Z,13.77
2023-05-10T23:44:08.836Z,13.73
2023-05-10T23:47:11.413Z,13.70
2023-05-10T23:50:14.774Z,13.65
2023-05-10T23:53:17.542Z,13.62
2023-05-10T23:56:20.088Z,13.57
2023-05-10T23:59:22.774Z,13.54
